sensor_id;sensor_type;location;lat;lon;timestamp;P1;durP1;ratioP1;P2;durP2;ratioP2
22774;SDS011;11554;51.106;3.684;2023-05-10T00:00:00;16.70;;;8.60;;
22774;SDS011;11554;51.106;3.684;2023-05-10T00:05:00;16.10;;;8.60;;
22774;SDS011;11554;51.106;3.684;2023-05-10T00:10:00;16.10;;;8.60;;
22774;SDS011;11554;51.106;3.684;2023-05-10T00:15:00;16.00;;;9.00;;
22774;SDS011;11554;51.106;3.684;2023-05-10T00:20:00;16.00;;;9.00;;
22774;SDS011;11554;51.106;3.684;2023-05-10T00:25:01;18.10;;;10.80;;
22774;SDS011;11554;51.106;3.684;2023-05-10T00:30:00;18.10;;;10.80;;
22774;SDS011;11554;51.106;3.684;2023-05-10T00:35:00;22.80;;;12.60;;
22774;SDS011;11554;51.106;3.684;2023-05-10T00:40:00;22.80;;;12.60;;
22774;SDS011;11554;51.106;3.684;2023-05-10T00:45:00;20.70;;;13.30;;
22774;SDS011;11554;51.106;3.684;2023-05-10T00:50:01;20.70;;;13.30;;
22774;SDS011;11554;51.106;3.684;2023-05-10T00:55:01;24.40;;;14.90;;
22774;SDS011;11554;51.106;3.684;2023-05-10T01:00:01;24.40;;;14.90;;
22774;SDS011;11554;51.106;3.684;2023-05-10T01:05:01;32.90;;;20.30;;
22774;SDS011;11554;51.106;3.684;2023-05-10T01:10:00;32.90;;;20.30;;
22774;SDS011;11554;51.106;3.684;2023-05-10T01:15:00;38.80;;;22.10;;
22774;SDS011;11554;51.106;3.684;2023-05-10T01:20:00;38.80;;;22.10;;
22774;SDS011;11554;51.106;3.684;2023-05-10T01:25:16;29.30;;;19.30;;
22774;SDS011;11554;51.106;3.684;2023-05-10T01:30:08;29.30;;;19.30;;
22774;SDS011;11554;51.106;3.684;2023-05-10T01:35:03;26.90;;;18.70;;
22774;SDS011;11554;51.106;3.684;2023-05-10T01:40:04;26.90;;;18.70;;
22774;SDS011;11554;51.106;3.684;2023-05-10T01:45:16;26.90;;;18.60;;
22774;SDS011;11554;51.106;3.684;2023-05-10T01:50:02;26.90;;;18.60;;
22774;SDS011;11554;51.106;3.684;2023-05-10T01:55:04;24.20;;;16.80;;
22774;SDS011;11554;51.106;3.684;2023-05-10T02:00:02;24.20;;;16.80;;
22774;SDS011;11554;51.106;3.684;2023-05-10T02:05:01;25.50;;;17.10;;
22774;SDS011;11554;51.106;3.684;2023-05-10T02:10:01;25.50;;;17.10;;
22774;SDS011;11554;51.106;3.684;2023-05-10T02:15:02;26.10;;;16.70;;
22774;SDS011;11554;51.106;3.684;2023-05-10T02:20:01;26.10;;;16.70;;
22774;SDS011;11554;51.106;3.684;2023-05-10T02:25:00;27.60;;;17.10;;
22774;SDS011;11554;51.106;3.684;2023-05-10T02:30:01;27.60;;;17.10;;
22774;SDS011;11554;51.106;3.684;2023-05-10T02:35:01;26.20;;;16.30;;
22774;SDS011;11554;51.106;3.684;2023-05-10T02:40:01;26.20;;;16.30;;
22774;SDS011;11554;51.106;3.684;2023-05-10T02:45:03;25.10;;;16.50;;
22774;SDS011;11554;51.106;3.684;2023-05-10T02:50:00;25.10;;;16.50;;
22774;SDS011;11554;51.106;3.684;2023-05-10T02:55:02;26.30;;;17.10;;
22774;SDS011;11554;51.106;3.684;2023-05-10T03:00:00;26.30;;;17.10;;
22774;SDS011;11554;51.106;3.684;2023-05-10T03:05:00;28.90;;;17.80;;
22774;SDS011;11554;51.106;3.684;2023-05-10T03:10:00;28.90;;;17.80;;
22774;SDS011;11554;51.106;3.684;2023-05-10T03:15:04;27.00;;;16.60;;
22774;SDS011;11554;51.106;3.684;2023-05-10T03:20:06;27.00;;;16.60;;
22774;SDS011;11554;51.106;3.684;2023-05-10T03:25:05;24.20;;;16.20;;
22774;SDS011;11554;51.106;3.684;2023-05-10T03:30:02;24.20;;;16.20;;
22774;SDS011;11554;51.106;3.684;2023-05-10T03:35:00;25.50;;;16.60;;
22774;SDS011;11554;51.106;3.684;2023-05-10T03:40:00;25.50;;;16.60;;
22774;SDS011;11554;51.106;3.684;2023-05-10T03:45:00;25.80;;;17.20;;
22774;SDS011;11554;51.106;3.684;2023-05-10T03:50:00;25.80;;;17.20;;
22774;SDS011;11554;51.106;3.684;2023-05-10T03:55:00;27.10;;;18.50;;
22774;SDS011;11554;51.106;3.684;2023-05-10T04:00:00;27.10;;;18.50;;
22774;SDS011;11554;51.106;3.684;2023-05-10T04:05:00;28.90;;;18.90;;
22774;SDS011;11554;51.106;3.684;2023-05-10T04:10:00;28.90;;;18.90;;
22774;SDS011;11554;51.106;3.684;2023-05-10T04:15:00;26.20;;;18.30;;
22774;SDS011;11554;51.106;3.684;2023-05-10T04:20:00;26.20;;;18.30;;
22774;SDS011;11554;51.106;3.684;2023-05-10T04:25:00;31.50;;;20.40;;
22774;SDS011;11554;51.106;3.684;2023-05-10T04:30:01;31.50;;;20.40;;
22774;SDS011;11554;51.106;3.684;2023-05-10T04:35:00;32.70;;;21.10;;
22774;SDS011;11554;51.106;3.684;2023-05-10T04:40:01;32.70;;;21.10;;
22774;SDS011;11554;51.106;3.684;2023-05-10T04:45:00;31.10;;;20.50;;
22774;SDS011;11554;51.106;3.684;2023-05-10T04:50:00;31.10;;;20.50;;
22774;SDS011;11554;51.106;3.684;2023-05-10T04:55:00;34.90;;;21.60;;
22774;SDS011;11554;51.106;3.684;2023-05-10T05:00:00;34.90;;;21.60;;
22774;SDS011;11554;51.106;3.684;2023-05-10T05:05:00;31.60;;;21.40;;
22774;SDS011;11554;51.106;3.684;2023-05-10T05:10:00;31.60;;;21.40;;
22774;SDS011;11554;51.106;3.684;2023-05-10T05:15:00;32.30;;;22.20;;
22774;SDS011;11554;51.106;3.684;2023-05-10T05:20:00;32.30;;;22.20;;
22774;SDS011;11554;51.106;3.684;2023-05-10T05:25:00;33.30;;;21.20;;
22774;SDS011;11554;51.106;3.684;2023-05-10T05:30:00;33.30;;;21.20;;
22774;SDS011;11554;51.106;3.684;2023-05-10T05:35:00;27.70;;;19.60;;
22774;SDS011;11554;51.106;3.684;2023-05-10T05:40:00;27.70;;;19.60;;
22774;SDS011;11554;51.106;3.684;2023-05-10T05:45:00;30.00;;;20.70;;
22774;SDS011;11554;51.106;3.684;2023-05-10T05:50:00;30.00;;;20.70;;
22774;SDS011;11554;51.106;3.684;2023-05-10T05:55:00;31.60;;;21.00;;
22774;SDS011;11554;51.106;3.684;2023-05-10T06:00:00;31.60;;;21.00;;
22774;SDS011;11554;51.106;3.684;2023-05-10T06:05:00;28.80;;;18.80;;
22774;SDS011;11554;51.106;3.684;2023-05-10T06:10:00;28.80;;;18.80;;
22774;SDS011;11554;51.106;3.684;2023-05-10T06:15:00;25.90;;;17.50;;
22774;SDS011;11554;51.106;3.684;2023-05-10T06:20:00;25.90;;;17.50;;
22774;SDS011;11554;51.106;3.684;2023-05-10T06:25:00;34.40;;;22.10;;
22774;SDS011;11554;51.106;3.684;2023-05-10T06:30:00;34.40;;;22.10;;
22774;SDS011;11554;51.106;3.684;2023-05-10T06:35:00;34.00;;;22.00;;
22774;SDS011;11554;51.106;3.684;2023-05-10T06:40:00;34.00;;;22.00;;
22774;SDS011;11554;51.106;3.684;2023-05-10T06:45:00;29.20;;;19.80;;
22774;SDS011;11554;51.106;3.684;2023-05-10T06:50:00;29.20;;;19.80;;
22774;SDS011;11554;51.106;3.684;2023-05-10T06:55:01;20.70;;;15.40;;
22774;SDS011;11554;51.106;3.684;2023-05-10T07:00:01;20.70;;;15.40;;
22774;SDS011;11554;51.106;3.684;2023-05-10T07:05:00;16.50;;;13.80;;
22774;SDS011;11554;51.106;3.684;2023-05-10T07:10:00;16.50;;;13.80;;
22774;SDS011;11554;51.106;3.684;2023-05-10T07:15:00;18.00;;;13.70;;
22774;SDS011;11554;51.106;3.684;2023-05-10T07:20:00;18.00;;;13.70;;
22774;SDS011;11554;51.106;3.684;2023-05-10T07:25:00;15.60;;;11.10;;
22774;SDS011;11554;51.106;3.684;2023-05-10T07:30:00;15.60;;;11.10;;
22774;SDS011;11554;51.106;3.684;2023-05-10T07:35:00;13.80;;;10.10;;
22774;SDS011;11554;51.106;3.684;2023-05-10T07:40:00;13.80;;;10.10;;
22774;SDS011;11554;51.106;3.684;2023-05-10T07:45:00;13.80;;;10.90;;
22774;SDS011;11554;51.106;3.684;2023-05-10T07:50:00;13.80;;;10.90;;
22774;SDS011;11554;51.106;3.684;2023-05-10T07:55:00;17.00;;;11.40;;
22774;SDS011;11554;51.106;3.684;2023-05-10T08:00:00;17.00;;;11.40;;
22774;SDS011;11554;51.106;3.684;2023-05-10T08:05:00;12.20;;;9.80;;
22774;SDS011;11554;51.106;3.684;2023-05-10T08:10:00;12.20;;;9.80;;
22774;SDS011;11554;51.106;3.684;2023-05-10T08:15:00;12.50;;;10.00;;
22774;SDS011;11554;51.106;3.684;2023-05-10T08:20:01;12.50;;;10.00;;
22774;SDS011;11554;51.106;3.684;2023-05-10T08:25:00;13.70;;;8.60;;
22774;SDS011;11554;51.106;3.684;2023-05-10T08:30:00;13.70;;;8.60;;
22774;SDS011;11554;51.106;3.684;2023-05-10T08:35:00;10.90;;;7.40;;
22774;SDS011;11554;51.106;3.684;2023-05-10T08:40:00;10.90;;;7.40;;
22774;SDS011;11554;51.106;3.684;2023-05-10T08:45:01;20.70;;;13.20;;
22774;SDS011;11554;51.106;3.684;2023-05-10T08:50:02;20.70;;;13.20;;
22774;SDS011;11554;51.106;3.684;2023-05-10T08:55:00;12.00;;;8.70;;
22774;SDS011;11554;51.106;3.684;2023-05-10T09:00:00;12.00;;;8.70;;
22774;SDS011;11554;51.106;3.684;2023-05-10T09:05:00;16.30;;;12.50;;
22774;SDS011;11554;51.106;3.684;2023-05-10T09:10:00;16.30;;;12.50;;
22774;SDS011;11554;51.106;3.684;2023-05-10T09:15:01;22.00;;;16.60;;
22774;SDS011;11554;51.106;3.684;2023-05-10T09:20:01;22.00;;;16.60;;
22774;SDS011;11554;51.106;3.684;2023-05-10T09:25:05;22.30;;;16.10;;
22774;SDS011;11554;51.106;3.684;2023-05-10T09:30:00;22.30;;;16.10;;
22774;SDS011;11554;51.106;3.684;2023-05-10T09:35:06;21.20;;;15.30;;
22774;SDS011;11554;51.106;3.684;2023-05-10T09:40:04;21.20;;;15.30;;
22774;SDS011;11554;51.106;3.684;2023-05-10T09:45:01;15.90;;;12.30;;
22774;SDS011;11554;51.106;3.684;2023-05-10T09:50:01;15.90;;;12.30;;
22774;SDS011;11554;51.106;3.684;2023-05-10T09:55:00;17.20;;;12.70;;
22774;SDS011;11554;51.106;3.684;2023-05-10T10:00:00;17.20;;;12.70;;
22774;SDS011;11554;51.106;3.684;2023-05-10T10:05:00;22.30;;;15.10;;
22774;SDS011;11554;51.106;3.684;2023-05-10T10:10:00;22.30;;;15.10;;
22774;SDS011;11554;51.106;3.684;2023-05-10T10:15:00;20.60;;;14.30;;
22774;SDS011;11554;51.106;3.684;2023-05-10T10:20:02;20.60;;;14.30;;
22774;SDS011;11554;51.106;3.684;2023-05-10T10:25:00;14.90;;;11.70;;
22774;SDS011;11554;51.106;3.684;2023-05-10T10:30:04;14.90;;;11.70;;
22774;SDS011;11554;51.106;3.684;2023-05-10T10:35:00;19.50;;;13.10;;
22774;SDS011;11554;51.106;3.684;2023-05-10T10:40:00;19.50;;;13.10;;
22774;SDS011;11554;51.106;3.684;2023-05-10T10:45:11;16.70;;;12.90;;
22774;SDS011;11554;51.106;3.684;2023-05-10T10:50:04;16.70;;;12.90;;
22774;SDS011;11554;51.106;3.684;2023-05-10T10:55:02;18.90;;;13.10;;
22774;SDS011;11554;51.106;3.684;2023-05-10T11:00:17;18.90;;;13.10;;
22774;SDS011;11554;51.106;3.684;2023-05-10T11:10:04;21.60;;;15.20;;
22774;SDS011;11554;51.106;3.684;2023-05-10T11:15:01;22.30;;;16.70;;
22774;SDS011;11554;51.106;3.684;2023-05-10T11:20:08;22.30;;;16.70;;
22774;SDS011;11554;51.106;3.684;2023-05-10T11:25:00;26.10;;;19.00;;
22774;SDS011;11554;51.106;3.684;2023-05-10T11:30:00;26.10;;;19.00;;
22774;SDS011;11554;51.106;3.684;2023-05-10T11:35:06;21.70;;;18.40;;
22774;SDS011;11554;51.106;3.684;2023-05-10T11:40:00;21.70;;;18.40;;
22774;SDS011;11554;51.106;3.684;2023-05-10T11:45:00;26.30;;;19.90;;
22774;SDS011;11554;51.106;3.684;2023-05-10T11:50:00;26.30;;;19.90;;
22774;SDS011;11554;51.106;3.684;2023-05-10T11:55:00;25.60;;;19.10;;
22774;SDS011;11554;51.106;3.684;2023-05-10T12:00:00;25.60;;;19.10;;
22774;SDS011;11554;51.106;3.684;2023-05-10T12:05:00;24.00;;;19.40;;
22774;SDS011;11554;51.106;3.684;2023-05-10T12:10:05;24.00;;;19.40;;
22774;SDS011;11554;51.106;3.684;2023-05-10T12:15:01;23.60;;;18.20;;
22774;SDS011;11554;51.106;3.684;2023-05-10T12:20:14;23.60;;;18.20;;
22774;SDS011;11554;51.106;3.684;2023-05-10T12:25:00;24.10;;;16.60;;
22774;SDS011;11554;51.106;3.684;2023-05-10T12:30:02;24.10;;;16.60;;
22774;SDS011;11554;51.106;3.684;2023-05-10T12:35:00;20.50;;;15.60;;
22774;SDS011;11554;51.106;3.684;2023-05-10T12:40:00;20.50;;;15.60;;
22774;SDS011;11554;51.106;3.684;2023-05-10T12:45:00;21.30;;;15.20;;
22774;SDS011;11554;51.106;3.684;2023-05-10T12:50:01;21.30;;;15.20;;
22774;SDS011;11554;51.106;3.684;2023-05-10T12:55:00;16.30;;;9.30;;
22774;SDS011;11554;51.106;3.684;2023-05-10T13:00:00;16.30;;;9.30;;
22774;SDS011;11554;51.106;3.684;2023-05-10T13:05:00;17.90;;;11.40;;
22774;SDS011;11554;51.106;3.684;2023-05-10T13:10:00;17.90;;;11.40;;
22774;SDS011;11554;51.106;3.684;2023-05-10T13:15:00;18.90;;;12.10;;
22774;SDS011;11554;51.106;3.684;2023-05-10T13:20:00;18.90;;;12.10;;
22774;SDS011;11554;51.106;3.684;2023-05-10T13:25:00;18.30;;;12.00;;
22774;SDS011;11554;51.106;3.684;2023-05-10T13:30:02;18.30;;;12.00;;
22774;SDS011;11554;51.106;3.684;2023-05-10T13:35:00;17.70;;;10.30;;
22774;SDS011;11554;51.106;3.684;2023-05-10T13:40:00;17.70;;;10.30;;
22774;SDS011;11554;51.106;3.684;2023-05-10T13:45:00;18.00;;;10.10;;
22774;SDS011;11554;51.106;3.684;2023-05-10T13:50:00;18.00;;;10.10;;
22774;SDS011;11554;51.106;3.684;2023-05-10T13:55:00;19.70;;;10.20;;
22774;SDS011;11554;51.106;3.684;2023-05-10T14:00:00;19.70;;;10.20;;
22774;SDS011;11554;51.106;3.684;2023-05-10T14:05:00;18.00;;;9.90;;
22774;SDS011;11554;51.106;3.684;2023-05-10T14:10:00;18.00;;;9.90;;
22774;SDS011;11554;51.106;3.684;2023-05-10T14:15:00;17.50;;;8.80;;
22774;SDS011;11554;51.106;3.684;2023-05-10T14:20:00;17.50;;;8.80;;
22774;SDS011;11554;51.106;3.684;2023-05-10T14:25:00;19.20;;;9.50;;
22774;SDS011;11554;51.106;3.684;2023-05-10T14:30:00;19.20;;;9.50;;
22774;SDS011;11554;51.106;3.684;2023-05-10T14:35:00;14.00;;;8.10;;
22774;SDS011;11554;51.106;3.684;2023-05-10T14:40:00;14.00;;;8.10;;
22774;SDS011;11554;51.106;3.684;2023-05-10T14:45:00;15.40;;;7.30;;
22774;SDS011;11554;51.106;3.684;2023-05-10T14:50:00;15.40;;;7.30;;
22774;SDS011;11554;51.106;3.684;2023-05-10T14:55:00;20.90;;;7.00;;
22774;SDS011;11554;51.106;3.684;2023-05-10T15:00:00;20.90;;;7.00;;
22774;SDS011;11554;51.106;3.684;2023-05-10T15:05:00;14.10;;;5.70;;
22774;SDS011;11554;51.106;3.684;2023-05-10T15:10:00;14.10;;;5.70;;
22774;SDS011;11554;51.106;3.684;2023-05-10T15:15:00;15.00;;;4.90;;
22774;SDS011;11554;51.106;3.684;2023-05-10T15:20:00;15.00;;;4.90;;
22774;SDS011;11554;51.106;3.684;2023-05-10T15:25:00;13.70;;;4.70;;
22774;SDS011;11554;51.106;3.684;2023-05-10T15:30:00;13.70;;;4.70;;
22774;SDS011;11554;51.106;3.684;2023-05-10T15:35:00;14.60;;;4.40;;
22774;SDS011;11554;51.106;3.684;2023-05-10T15:40:00;14.60;;;4.40;;
22774;SDS011;11554;51.106;3.684;2023-05-10T15:45:00;14.40;;;4.90;;
22774;SDS011;11554;51.106;3.684;2023-05-10T15:50:00;14.40;;;4.90;;
22774;SDS011;11554;51.106;3.684;2023-05-10T15:55:00;14.90;;;5.00;;
22774;SDS011;11554;51.106;3.684;2023-05-10T16:00:00;14.90;;;5.00;;
22774;SDS011;11554;51.106;3.684;2023-05-10T16:05:00;14.10;;;5.10;;
22774;SDS011;11554;51.106;3.684;2023-05-10T16:10:00;14.10;;;5.10;;
22774;SDS011;11554;51.106;3.684;2023-05-10T16:15:00;16.10;;;5.20;;
22774;SDS011;11554;51.106;3.684;2023-05-10T16:20:00;16.10;;;5.20;;
22774;SDS011;11554;51.106;3.684;2023-05-10T16:25:00;10.40;;;4.10;;
22774;SDS011;11554;51.106;3.684;2023-05-10T16:30:00;10.40;;;4.10;;
22774;SDS011;11554;51.106;3.684;2023-05-10T16:35:00;13.50;;;4.40;;
22774;SDS011;11554;51.106;3.684;2023-05-10T16:40:00;13.50;;;4.40;;
22774;SDS011;11554;51.106;3.684;2023-05-10T16:45:00;15.00;;;4.50;;
22774;SDS011;11554;51.106;3.684;2023-05-10T16:50:00;15.00;;;4.50;;
22774;SDS011;11554;51.106;3.684;2023-05-10T16:55:00;13.20;;;4.20;;
22774;SDS011;11554;51.106;3.684;2023-05-10T17:00:00;13.20;;;4.20;;
22774;SDS011;11554;51.106;3.684;2023-05-10T17:05:00;12.90;;;4.10;;
22774;SDS011;11554;51.106;3.684;2023-05-10T17:10:00;12.90;;;4.10;;
22774;SDS011;11554;51.106;3.684;2023-05-10T17:15:00;11.00;;;4.20;;
22774;SDS011;11554;51.106;3.684;2023-05-10T17:20:00;11.00;;;4.20;;
22774;SDS011;11554;51.106;3.684;2023-05-10T17:25:00;14.80;;;4.90;;
22774;SDS011;11554;51.106;3.684;2023-05-10T17:30:00;14.80;;;4.90;;
22774;SDS011;11554;51.106;3.684;2023-05-10T17:35:01;13.80;;;5.50;;
22774;SDS011;11554;51.106;3.684;2023-05-10T17:40:00;13.80;;;5.50;;
22774;SDS011;11554;51.106;3.684;2023-05-10T17:45:00;15.20;;;5.50;;
22774;SDS011;11554;51.106;3.684;2023-05-10T17:50:00;15.20;;;5.50;;
22774;SDS011;11554;51.106;3.684;2023-05-10T17:55:00;17.60;;;5.70;;
22774;SDS011;11554;51.106;3.684;2023-05-10T18:00:00;17.60;;;5.70;;
22774;SDS011;11554;51.106;3.684;2023-05-10T18:05:00;18.90;;;6.00;;
22774;SDS011;11554;51.106;3.684;2023-05-10T18:10:00;18.90;;;6.00;;
22774;SDS011;11554;51.106;3.684;2023-05-10T18:15:00;18.10;;;6.20;;
22774;SDS011;11554;51.106;3.684;2023-05-10T18:20:00;18.10;;;6.20;;
22774;SDS011;11554;51.106;3.684;2023-05-10T18:25:00;14.30;;;6.30;;
22774;SDS011;11554;51.106;3.684;2023-05-10T18:30:00;14.30;;;6.30;;
22774;SDS011;11554;51.106;3.684;2023-05-10T18:35:00;14.90;;;6.20;;
22774;SDS011;11554;51.106;3.684;2023-05-10T18:40:01;14.90;;;6.20;;
22774;SDS011;11554;51.106;3.684;2023-05-10T18:45:00;15.70;;;6.40;;
22774;SDS011;11554;51.106;3.684;2023-05-10T18:50:02;15.70;;;6.40;;
22774;SDS011;11554;51.106;3.684;2023-05-10T18:55:00;16.60;;;7.00;;
22774;SDS011;11554;51.106;3.684;2023-05-10T19:00:00;16.60;;;7.00;;
22774;SDS011;11554;51.106;3.684;2023-05-10T19:05:00;17.80;;;6.70;;
22774;SDS011;11554;51.106;3.684;2023-05-10T19:10:00;17.80;;;6.70;;
22774;SDS011;11554;51.106;3.684;2023-05-10T19:15:00;14.80;;;6.60;;
22774;SDS011;11554;51.106;3.684;2023-05-10T19:20:00;14.80;;;6.60;;
22774;SDS011;11554;51.106;3.684;2023-05-10T19:25:00;22.20;;;7.20;;
22774;SDS011;11554;51.106;3.684;2023-05-10T19:30:00;22.20;;;7.20;;
22774;SDS011;11554;51.106;3.684;2023-05-10T19:35:00;16.50;;;7.40;;
22774;SDS011;11554;51.106;3.684;2023-05-10T19:40:00;16.50;;;7.40;;
22774;SDS011;11554;51.106;3.684;2023-05-10T19:45:00;16.00;;;8.00;;
22774;SDS011;11554;51.106;3.684;2023-05-10T19:50:00;16.00;;;8.00;;
22774;SDS011;11554;51.106;3.684;2023-05-10T19:55:00;22.50;;;8.40;;
22774;SDS011;11554;51.106;3.684;2023-05-10T20:00:00;22.50;;;8.40;;
22774;SDS011;11554;51.106;3.684;2023-05-10T20:05:00;21.30;;;9.40;;
22774;SDS011;11554;51.106;3.684;2023-05-10T20:10:00;21.30;;;9.40;;
22774;SDS011;11554;51.106;3.684;2023-05-10T20:15:00;18.00;;;7.10;;
22774;SDS011;11554;51.106;3.684;2023-05-10T20:20:00;18.00;;;7.10;;
22774;SDS011;11554;51.106;3.684;2023-05-10T20:25:00;15.60;;;7.40;;
22774;SDS011;11554;51.106;3.684;2023-05-10T20:30:00;15.60;;;7.40;;
22774;SDS011;11554;51.106;3.684;2023-05-10T20:35:00;16.20;;;7.40;;
22774;SDS011;11554;51.106;3.684;2023-05-10T20:40:00;16.20;;;7.40;;
22774;SDS011;11554;51.106;3.684;2023-05-10T20:45:00;16.60;;;7.60;;
22774;SDS011;11554;51.106;3.684;2023-05-10T20:50:00;16.60;;;7.60;;
22774;SDS011;11554;51.106;3.684;2023-05-10T20:55:00;19.00;;;8.60;;
22774;SDS011;11554;51.106;3.684;2023-05-10T21:00:00;19.00;;;8.60;;
22774;SDS011;11554;51.106;3.684;2023-05-10T21:05:00;17.90;;;9.30;;
22774;SDS011;11554;51.106;3.684;2023-05-10T21:10:00;17.90;;;9.30;;
22774;SDS011;11554;51.106;3.684;2023-05-10T21:15:01;19.90;;;9.50;;
22774;SDS011;11554;51.106;3.684;2023-05-10T21:20:00;19.90;;;9.50;;
22774;SDS011;11554;51.106;3.684;2023-05-10T21:25:00;17.60;;;8.60;;
22774;SDS011;11554;51.106;3.684;2023-05-10T21:30:00;17.60;;;8.60;;
22774;SDS011;11554;51.106;3.684;2023-05-10T21:35:00;13.40;;;8.10;;
22774;SDS011;11554;51.106;3.684;2023-05-10T21:40:00;13.40;;;8.10;;
22774;SDS011;11554;51.106;3.684;2023-05-10T21:45:00;22.40;;;8.30;;
22774;SDS011;11554;51.106;3.684;2023-05-10T21:50:00;22.40;;;8.30;;
22774;SDS011;11554;51.106;3.684;2023-05-10T21:55:00;16.30;;;7.60;;
22774;SDS011;11554;51.106;3.684;2023-05-10T22:00:00;16.30;;;7.60;;
22774;SDS011;11554;51.106;3.684;2023-05-10T22:05:01;14.00;;;6.60;;
22774;SDS011;11554;51.106;3.684;2023-05-10T22:10:00;14.00;;;6.60;;
22774;SDS011;11554;51.106;3.684;2023-05-10T22:15:00;16.30;;;7.20;;
22774;SDS011;11554;51.106;3.684;2023-05-10T22:20:00;16.30;;;7.20;;
22774;SDS011;11554;51.106;3.684;2023-05-10T22:25:00;15.00;;;6.10;;
22774;SDS011;11554;51.106;3.684;2023-05-10T22:30:00;15.00;;;6.10;;
22774;SDS011;11554;51.106;3.684;2023-05-10T22:35:00;15.40;;;6.10;;
22774;SDS011;11554;51.106;3.684;2023-05-10T22:40:00;15.40;;;6.10;;
22774;SDS011;11554;51.106;3.684;2023-05-10T22:45:00;9.80;;;5.00;;
22774;SDS011;11554;51.106;3.684;2023-05-10T22:50:00;9.80;;;5.00;;
22774;SDS011;11554;51.106;3.684;2023-05-10T22:55:00;14.10;;;5.00;;
22774;SDS011;11554;51.106;3.684;2023-05-10T23:00:01;14.10;;;5.00;;
22774;SDS011;11554;51.106;3.684;2023-05-10T23:05:00;14.80;;;5.10;;
22774;SDS011;11554;51.106;3.684;2023-05-10T23:10:00;14.80;;;5.10;;
22774;SDS011;11554;51.106;3.684;2023-05-10T23:15:00;14.70;;;5.00;;
22774;SDS011;11554;51.106;3.684;2023-05-10T23:20:00;14.70;;;5.00;;
22774;SDS011;11554;51.106;3.684;2023-05-10T23:25:00;13.50;;;5.20;;
22774;SDS011;11554;51.106;3.684;2023-05-10T23:30:00;13.50;;;5.20;;
22774;SDS011;11554;51.106;3.684;2023-05-10T23:35:00;15.30;;;5.20;;
22774;SDS011;11554;51.106;3.684;2023-05-10T23:40:00;15.30;;;5.20;;
22774;SDS011;11554;51.106;3.684;2023-05-10T23:45:00;12.70;;;4.80;;
22774;SDS011;11554;51.106;3.684;2023-05-10T23:50:00;12.70;;;4.80;;
22774;SDS011;11554;51.106;3.684;2023-05-10T23:55:00;12.90;;;4.40;;
